Airfield :
LOGIN :

Register | Disclaimer

   EN    FR    IT 

 










Legend :    VFR   Marginal VFR   IFR   Intensive IFR   Very Intensive IFR
Visi :
Ceiling :
>= 8 km
>= 3000ft
5 to 8 km
1000 to 3000 ft
1500m to 5 km
500 to 1000 ft
800 to 1500m
200 to 500 ft
< 800m
< 200 ft
Symbols :   Thunderstorms  Fog  Heavy snow  Heavy precipitations  Wind > 20 kt
SIGMETs :     Misc.  Thunderstorms  Icing  Turbulence  Mountain Waves  Volcanic Ashes






- Airport Elevation : 299 ft
- IATA code : EDM


LFRI - La Roche Sur Yon - Les Ajoncs

CURRENT METAR :
  • 140030Z AUTO 27005KT 220V300 9999 BKN007 OVC016 18/17 Q1016

EXPIRED METARs :
  • 140000Z AUTO 25006KT 220V280 6000 -RADZ BKN007 OVC016 18/18 Q1016
  • 132330Z AUTO 26005KT 9999 BKN009 BKN019 OVC044 19/17 Q1016
  • 132300Z AUTO 26006KT 9999 BKN009 OVC021 19/17 Q1016
  • 132230Z AUTO 25006KT 220V280 9999 BKN008 BKN020 OVC025 19/18 Q1016
  • 132200Z AUTO 26005KT 230V290 9999 BKN007 OVC012 19/18 Q1016

TAF TAF LFRI
Valid from the 13 at 18:00 until the 14 at 18:00 UTC


131700Z 1318/1418 26008KT 9999 BKN025
TEMPO 1318/1406 4000 SHRA BKN012 BKN020CB
PROB40
TEMPO 1400/1406 BKN006



MET'MAP, your aeronautical weather chart ! - Copyright ORBIFLY December 2007 - Disclaimer

ORBIFLY MET'MAP TEAM :

Programming & Development : Alexandra Zaïnal
Concept & original design : Baudouin d'Aumeries
Assistance for programming : Marc-Olivier Méhu
Technical & hardware support : Manuel Goepfert

Contact : metmap@orbifly.com




SOURCES & CREDITS :

   NOAA